Zeynalabdin Tagiyev — 9HLD8 — position and weather

sailwx.info

Track history (hours):
 
Tides and Currents Weather Stations Pressure Air Temp Water Temp Dewpoint Dewpoint Depression Visibility Wind Speed Wind Dir Waves Ship Positions

Zeynalabdin Tagiyev

Last reported at 2017-Sep-25 09:30 UTC. Time now 2017-Sep-25 16:58 UTC.
Position N 45°15' E 036°28'.

Length 140 m; draft 4.1 m.

Type: Cargo ship. MMSI: 256107000.

Date/timePositionNaut miles runAvg speedWind from/ knotsBaromVisibWave heightAir tempDewpointWater temp
2017-Sep-25 09:30N 45°15' E 036°28'4 6.8
2017-Sep-25 08:59N 45°18' E 036°30'4 8.7
2017-Sep-25 08:31N 45°20' E 036°36'4 7.6
2017-Sep-25 08:01N 45°22' E 036°40'4 7.6
2017-Sep-25 07:30N 45°26' E 036°41'4 7.3
2017-Sep-25 06:57N 45°30' E 036°44'  
2017-Sep-19 08:14N 45°29' E 036°44'2 7.0
2017-Sep-19 08:00N 45°28' E 036°42'3 7.0
2017-Sep-19 07:30N 45°24' E 036°41'3 6.7
2017-Sep-19 06:59N 45°21' E 036°39'4 7.2
2017-Sep-19 06:30N 45°20' E 036°34'5 7.1
2017-Sep-19 05:45N 45°16' E 036°29'122 4.2
2017-Sep-18 00:42N 43°50' E 034°28'144 6.6
2017-Sep-17 02:51N 42°31' E 031°42'2 5.6
2017-Sep-17 02:27N 42°30' E 031°40'154 5.7
2017-Sep-15 23:23N 40°58' E 028°54'  
Track history (hours):
 
Tides and Currents Weather Stations Pressure Air Temp Water Temp Dewpoint Dewpoint Depression Visibility Wind Speed Wind Dir Waves Ship Positions

Zeynalabdin Tagiyev

Last reported at 2017-Sep-25 09:30 UTC. Time now 2017-Sep-25 16:58 UTC.
Position N 45°15' E 036°28'.

Length 140 m; draft 4.1 m.

Type: Cargo ship. MMSI: 256107000.

Date/timePositionNaut miles runAvg speedWind from/ knotsBaromVisibWave heightAir tempDewpointWater temp
2017-Sep-25 09:30N 45°15' E 036°28'4 6.8
2017-Sep-25 08:59N 45°18' E 036°30'4 8.7
2017-Sep-25 08:31N 45°20' E 036°36'4 7.6
2017-Sep-25 08:01N 45°22' E 036°40'4 7.6
2017-Sep-25 07:30N 45°26' E 036°41'4 7.3
2017-Sep-25 06:57N 45°30' E 036°44'  
2017-Sep-19 08:14N 45°29' E 036°44'2 7.0
2017-Sep-19 08:00N 45°28' E 036°42'3 7.0
2017-Sep-19 07:30N 45°24' E 036°41'3 6.7
2017-Sep-19 06:59N 45°21' E 036°39'4 7.2
2017-Sep-19 06:30N 45°20' E 036°34'5 7.1
2017-Sep-19 05:45N 45°16' E 036°29'122 4.2
2017-Sep-18 00:42N 43°50' E 034°28'144 6.6
2017-Sep-17 02:51N 42°31' E 031°42'2 5.6
2017-Sep-17 02:27N 42°30' E 031°40'154 5.7
2017-Sep-15 23:23N 40°58' E 028°54'  

Dump ship's entire track history